sensor_id;sensor_type;location;lat;lon;timestamp;temperature;humidity
35305;DHT22;26433;48.034;-1.764;2022-10-12T05:05:01;11.60;76.90
35305;DHT22;26433;48.034;-1.764;2022-10-12T05:10:06;11.50;77.00
35305;DHT22;26433;48.034;-1.764;2022-10-12T05:15:10;11.50;77.10
35305;DHT22;26433;48.034;-1.764;2022-10-12T05:20:15;11.50;77.00
35305;DHT22;26433;48.034;-1.764;2022-10-12T05:25:19;11.40;77.20
35305;DHT22;26433;48.034;-1.764;2022-10-12T05:30:23;11.40;77.10
35305;DHT22;26433;48.034;-1.764;2022-10-12T05:35:28;11.30;77.60
35305;DHT22;26433;48.034;-1.764;2022-10-12T05:40:31;11.30;77.60
35305;DHT22;26433;48.034;-1.764;2022-10-12T05:45:35;11.40;77.30
35305;DHT22;26433;48.034;-1.764;2022-10-12T05:50:40;11.30;77.30
35305;DHT22;26433;48.034;-1.764;2022-10-12T05:55:51;11.30;77.40
35305;DHT22;26433;48.034;-1.764;2022-10-12T06:01:03;11.30;77.40
35305;DHT22;26433;48.034;-1.764;2022-10-12T06:06:09;11.40;77.90
35305;DHT22;26433;48.034;-1.764;2022-10-12T06:11:12;11.40;77.40
35305;DHT22;26433;48.034;-1.764;2022-10-12T06:16:16;11.30;77.40
35305;DHT22;26433;48.034;-1.764;2022-10-12T06:21:21;11.30;77.40
35305;DHT22;26433;48.034;-1.764;2022-10-12T06:26:40;11.30;77.50
35305;DHT22;26433;48.034;-1.764;2022-10-12T06:31:44;11.30;77.70
35305;DHT22;26433;48.034;-1.764;2022-10-12T06:36:54;11.30;77.70
35305;DHT22;26433;48.034;-1.764;2022-10-12T06:42:03;11.30;77.40
35305;DHT22;26433;48.034;-1.764;2022-10-12T06:47:06;11.20;77.80
35305;DHT22;26433;48.034;-1.764;2022-10-12T06:52:11;11.20;77.90
35305;DHT22;26433;48.034;-1.764;2022-10-12T06:57:15;11.20;77.80
35305;DHT22;26433;48.034;-1.764;2022-10-12T07:02:19;11.20;77.90
35305;DHT22;26433;48.034;-1.764;2022-10-12T07:07:28;11.20;77.90
35305;DHT22;26433;48.034;-1.764;2022-10-12T07:12:33;11.30;78.00
35305;DHT22;26433;48.034;-1.764;2022-10-12T07:17:37;11.30;77.90
35305;DHT22;26433;48.034;-1.764;2022-10-12T07:22:43;11.30;78.00
35305;DHT22;26433;48.034;-1.764;2022-10-12T07:27:46;11.40;77.90
35305;DHT22;26433;48.034;-1.764;2022-10-12T07:32:53;11.50;77.60
35305;DHT22;26433;48.034;-1.764;2022-10-12T07:37:58;11.60;77.80
35305;DHT22;26433;48.034;-1.764;2022-10-12T07:43:01;11.70;77.90
35305;DHT22;26433;48.034;-1.764;2022-10-12T07:48:17;11.90;77.50
35305;DHT22;26433;48.034;-1.764;2022-10-12T07:53:22;12.10;77.60
35305;DHT22;26433;48.034;-1.764;2022-10-12T07:58:26;12.20;78.00
35305;DHT22;26433;48.034;-1.764;2022-10-12T08:03:30;12.40;77.30
35305;DHT22;26433;48.034;-1.764;2022-10-12T08:08:35;12.50;77.20
35305;DHT22;26433;48.034;-1.764;2022-10-12T08:13:39;12.60;77.50
35305;DHT22;26433;48.034;-1.764;2022-10-12T08:18:43;12.70;77.50
35305;DHT22;26433;48.034;-1.764;2022-10-12T08:23:49;12.80;77.50
35305;DHT22;26433;48.034;-1.764;2022-10-12T08:28:52;13.10;77.10
35305;DHT22;26433;48.034;-1.764;2022-10-12T08:33:56;13.20;76.90
35305;DHT22;26433;48.034;-1.764;2022-10-12T08:39:02;13.40;77.00
35305;DHT22;26433;48.034;-1.764;2022-10-12T08:44:24;13.70;76.90
35305;DHT22;26433;48.034;-1.764;2022-10-12T08:49:33;14.00;76.50
35305;DHT22;26433;48.034;-1.764;2022-10-12T08:54:40;14.40;75.90
35305;DHT22;26433;48.034;-1.764;2022-10-12T08:59:44;15.00;74.80
35305;DHT22;26433;48.034;-1.764;2022-10-12T09:04:53;15.60;73.10
35305;DHT22;26433;48.034;-1.764;2022-10-12T09:10:09;16.30;72.00
35305;DHT22;26433;48.034;-1.764;2022-10-12T09:15:20;17.10;70.80
35305;DHT22;26433;48.034;-1.764;2022-10-12T09:20:27;17.90;69.30
35305;DHT22;26433;48.034;-1.764;2022-10-12T09:25:33;18.50;68.40
35305;DHT22;26433;48.034;-1.764;2022-10-12T09:30:41;19.00;68.10
35305;DHT22;26433;48.034;-1.764;2022-10-12T09:35:46;19.50;67.20
35305;DHT22;26433;48.034;-1.764;2022-10-12T09:40:53;20.20;66.50
35305;DHT22;26433;48.034;-1.764;2022-10-12T09:46:00;21.00;65.30
35305;DHT22;26433;48.034;-1.764;2022-10-12T09:51:07;21.50;64.30
35305;DHT22;26433;48.034;-1.764;2022-10-12T09:56:25;22.00;64.00
35305;DHT22;26433;48.034;-1.764;2022-10-12T10:01:32;22.70;63.20
35305;DHT22;26433;48.034;-1.764;2022-10-12T10:06:37;23.30;62.10
35305;DHT22;26433;48.034;-1.764;2022-10-12T10:11:43;24.00;61.20
35305;DHT22;26433;48.034;-1.764;2022-10-12T10:16:48;24.80;60.20
35305;DHT22;26433;48.034;-1.764;2022-10-12T10:21:53;25.40;59.20
35305;DHT22;26433;48.034;-1.764;2022-10-12T10:27:00;25.80;58.80
35305;DHT22;26433;48.034;-1.764;2022-10-12T10:32:15;26.00;58.40
35305;DHT22;26433;48.034;-1.764;2022-10-12T10:37:25;25.90;58.60
35305;DHT22;26433;48.034;-1.764;2022-10-12T10:42:31;25.70;59.00
35305;DHT22;26433;48.034;-1.764;2022-10-12T10:47:42;25.60;59.30
35305;DHT22;26433;48.034;-1.764;2022-10-12T10:52:52;25.30;59.40
35305;DHT22;26433;48.034;-1.764;2022-10-12T10:58:02;24.90;60.10
35305;DHT22;26433;48.034;-1.764;2022-10-12T11:03:16;24.40;60.60
35305;DHT22;26433;48.034;-1.764;2022-10-12T11:08:28;24.00;61.50
35305;DHT22;26433;48.034;-1.764;2022-10-12T11:13:38;23.50;62.30
35305;DHT22;26433;48.034;-1.764;2022-10-12T11:18:44;23.10;63.20
35305;DHT22;26433;48.034;-1.764;2022-10-12T11:23:53;23.00;63.40
35305;DHT22;26433;48.034;-1.764;2022-10-12T11:29:00;22.90;63.20
35305;DHT22;26433;48.034;-1.764;2022-10-12T11:34:05;22.90;62.90
35305;DHT22;26433;48.034;-1.764;2022-10-12T11:39:17;23.10;62.00
35305;DHT22;26433;48.034;-1.764;2022-10-12T11:44:32;23.10;61.60
35305;DHT22;26433;48.034;-1.764;2022-10-12T11:49:49;23.20;61.70
35305;DHT22;26433;48.034;-1.764;2022-10-12T11:55:04;23.60;60.70
35305;DHT22;26433;48.034;-1.764;2022-10-12T12:00:19;24.20;59.60
35305;DHT22;26433;48.034;-1.764;2022-10-12T12:05:30;24.80;58.10
35305;DHT22;26433;48.034;-1.764;2022-10-12T12:11:02;24.80;57.80
35305;DHT22;26433;48.034;-1.764;2022-10-12T12:16:32;24.60;58.50
35305;DHT22;26433;48.034;-1.764;2022-10-12T12:27:33;24.70;57.50
35305;DHT22;26433;48.034;-1.764;2022-10-12T12:32:44;25.00;56.90
35305;DHT22;26433;48.034;-1.764;2022-10-12T12:37:49;25.00;56.50
35305;DHT22;26433;48.034;-1.764;2022-10-12T12:43:33;25.10;56.10
35305;DHT22;26433;48.034;-1.764;2022-10-12T12:48:59;25.50;55.20
35305;DHT22;26433;48.034;-1.764;2022-10-12T12:54:03;25.50;54.80
35305;DHT22;26433;48.034;-1.764;2022-10-12T12:59:32;26.00;54.50
35305;DHT22;26433;48.034;-1.764;2022-10-12T13:04:58;26.60;53.50
35305;DHT22;26433;48.034;-1.764;2022-10-12T13:10:16;26.70;53.00
35305;DHT22;26433;48.034;-1.764;2022-10-12T13:15:34;26.40;53.80
35305;DHT22;26433;48.034;-1.764;2022-10-12T13:20:42;25.90;53.70
35305;DHT22;26433;48.034;-1.764;2022-10-12T13:25:49;25.70;54.00
35305;DHT22;26433;48.034;-1.764;2022-10-12T13:31:00;25.10;54.40
35305;DHT22;26433;48.034;-1.764;2022-10-12T13:36:08;24.70;54.90
35305;DHT22;26433;48.034;-1.764;2022-10-12T13:41:16;24.60;55.10
35305;DHT22;26433;48.034;-1.764;2022-10-12T13:46:38;24.70;55.00
35305;DHT22;26433;48.034;-1.764;2022-10-12T13:51:46;24.70;54.50
35305;DHT22;26433;48.034;-1.764;2022-10-12T13:56:54;24.80;54.40
35305;DHT22;26433;48.034;-1.764;2022-10-12T14:02:01;24.80;54.30
35305;DHT22;26433;48.034;-1.764;2022-10-12T14:07:15;25.00;54.00
35305;DHT22;26433;48.034;-1.764;2022-10-12T14:12:19;25.10;53.70
35305;DHT22;26433;48.034;-1.764;2022-10-12T14:17:27;25.30;53.60
35305;DHT22;26433;48.034;-1.764;2022-10-12T14:22:32;25.10;53.60
35305;DHT22;26433;48.034;-1.764;2022-10-12T14:27:37;24.90;54.00
35305;DHT22;26433;48.034;-1.764;2022-10-12T14:32:42;24.70;54.30
35305;DHT22;26433;48.034;-1.764;2022-10-12T14:37:49;24.30;54.60
35305;DHT22;26433;48.034;-1.764;2022-10-12T14:42:56;24.10;55.10
35305;DHT22;26433;48.034;-1.764;2022-10-12T14:48:00;23.80;55.30
35305;DHT22;26433;48.034;-1.764;2022-10-12T14:53:10;23.50;55.60
35305;DHT22;26433;48.034;-1.764;2022-10-12T14:58:15;23.40;55.80
35305;DHT22;26433;48.034;-1.764;2022-10-12T15:03:19;23.30;56.00
35305;DHT22;26433;48.034;-1.764;2022-10-12T15:08:24;23.20;56.00
35305;DHT22;26433;48.034;-1.764;2022-10-12T15:13:28;23.00;56.20
35305;DHT22;26433;48.034;-1.764;2022-10-12T15:18:32;22.90;56.60
35305;DHT22;26433;48.034;-1.764;2022-10-12T15:23:37;22.70;56.90
35305;DHT22;26433;48.034;-1.764;2022-10-12T15:28:40;22.70;57.00
35305;DHT22;26433;48.034;-1.764;2022-10-12T15:33:44;22.50;57.10
35305;DHT22;26433;48.034;-1.764;2022-10-12T15:38:49;22.40;57.40
35305;DHT22;26433;48.034;-1.764;2022-10-12T15:43:53;22.40;57.50
35305;DHT22;26433;48.034;-1.764;2022-10-12T15:48:57;22.40;57.60
35305;DHT22;26433;48.034;-1.764;2022-10-12T15:54:02;22.40;57.70
35305;DHT22;26433;48.034;-1.764;2022-10-12T15:59:05;22.40;57.80
35305;DHT22;26433;48.034;-1.764;2022-10-12T16:04:12;22.20;57.90
35305;DHT22;26433;48.034;-1.764;2022-10-12T16:09:18;22.20;58.10
35305;DHT22;26433;48.034;-1.764;2022-10-12T16:14:22;22.00;58.60
35305;DHT22;26433;48.034;-1.764;2022-10-12T16:19:26;21.80;59.20
35305;DHT22;26433;48.034;-1.764;2022-10-12T16:24:31;21.60;59.20
35305;DHT22;26433;48.034;-1.764;2022-10-12T16:29:34;21.50;59.40
35305;DHT22;26433;48.034;-1.764;2022-10-12T16:34:38;21.40;59.60
35305;DHT22;26433;48.034;-1.764;2022-10-12T16:39:43;21.30;59.80
35305;DHT22;26433;48.034;-1.764;2022-10-12T16:44:47;21.20;60.00
35305;DHT22;26433;48.034;-1.764;2022-10-12T16:49:51;21.10;60.10
35305;DHT22;26433;48.034;-1.764;2022-10-12T16:54:56;21.00;60.40
35305;DHT22;26433;48.034;-1.764;2022-10-12T17:00:00;21.00;60.60
35305;DHT22;26433;48.034;-1.764;2022-10-12T17:05:04;20.90;60.80
35305;DHT22;26433;48.034;-1.764;2022-10-12T17:10:10;20.80;61.00
35305;DHT22;26433;48.034;-1.764;2022-10-12T17:15:13;20.70;61.30
35305;DHT22;26433;48.034;-1.764;2022-10-12T17:20:17;20.60;61.40
35305;DHT22;26433;48.034;-1.764;2022-10-12T17:25:22;20.60;61.60
35305;DHT22;26433;48.034;-1.764;2022-10-12T17:30:26;20.60;61.70
35305;DHT22;26433;48.034;-1.764;2022-10-12T17:35:29;20.30;62.20
35305;DHT22;26433;48.034;-1.764;2022-10-12T17:40:37;20.20;62.60
35305;DHT22;26433;48.034;-1.764;2022-10-12T17:45:41;20.00;63.00
35305;DHT22;26433;48.034;-1.764;2022-10-12T17:50:44;19.90;63.30
35305;DHT22;26433;48.034;-1.764;2022-10-12T17:55:51;19.80;63.60
35305;DHT22;26433;48.034;-1.764;2022-10-12T18:01:02;19.70;63.70
35305;DHT22;26433;48.034;-1.764;2022-10-12T18:06:08;19.50;64.10
35305;DHT22;26433;48.034;-1.764;2022-10-12T18:11:15;19.40;64.50
35305;DHT22;26433;48.034;-1.764;2022-10-12T18:16:20;19.30;64.90
35305;DHT22;26433;48.034;-1.764;2022-10-12T18:21:25;19.10;65.10
35305;DHT22;26433;48.034;-1.764;2022-10-12T18:26:30;19.10;65.30
35305;DHT22;26433;48.034;-1.764;2022-10-12T18:31:34;19.00;65.50
35305;DHT22;26433;48.034;-1.764;2022-10-12T18:36:39;18.90;65.70
35305;DHT22;26433;48.034;-1.764;2022-10-12T18:41:48;18.80;65.80
35305;DHT22;26433;48.034;-1.764;2022-10-12T18:46:52;18.70;66.10
35305;DHT22;26433;48.034;-1.764;2022-10-12T18:51:56;18.60;66.30
35305;DHT22;26433;48.034;-1.764;2022-10-12T18:57:01;18.60;66.60
35305;DHT22;26433;48.034;-1.764;2022-10-12T19:02:05;18.50;66.70
35305;DHT22;26433;48.034;-1.764;2022-10-12T19:07:09;18.50;66.90
35305;DHT22;26433;48.034;-1.764;2022-10-12T19:12:14;18.50;67.10
35305;DHT22;26433;48.034;-1.764;2022-10-12T19:17:20;18.50;67.20
35305;DHT22;26433;48.034;-1.764;2022-10-12T19:22:24;18.50;67.20
35305;DHT22;26433;48.034;-1.764;2022-10-12T19:27:29;18.50;67.30
35305;DHT22;26433;48.034;-1.764;2022-10-12T19:32:33;18.40;67.40
35305;DHT22;26433;48.034;-1.764;2022-10-12T19:37:37;18.40;67.60
35305;DHT22;26433;48.034;-1.764;2022-10-12T19:42:42;18.20;67.80
35305;DHT22;26433;48.034;-1.764;2022-10-12T19:47:45;18.00;68.30
35305;DHT22;26433;48.034;-1.764;2022-10-12T19:52:49;17.90;68.90
35305;DHT22;26433;48.034;-1.764;2022-10-12T19:57:54;17.80;69.10
35305;DHT22;26433;48.034;-1.764;2022-10-12T20:02:58;17.70;69.20
35305;DHT22;26433;48.034;-1.764;2022-10-12T20:08:01;17.60;69.30
35305;DHT22;26433;48.034;-1.764;2022-10-12T20:13:06;17.50;69.40
35305;DHT22;26433;48.034;-1.764;2022-10-12T20:18:10;17.40;69.50
35305;DHT22;26433;48.034;-1.764;2022-10-12T20:23:14;17.40;69.50
35305;DHT22;26433;48.034;-1.764;2022-10-12T20:28:19;17.30;69.60
35305;DHT22;26433;48.034;-1.764;2022-10-12T20:33:23;17.30;69.60
35305;DHT22;26433;48.034;-1.764;2022-10-12T20:38:27;17.20;69.40
35305;DHT22;26433;48.034;-1.764;2022-10-12T20:43:32;17.20;69.60
35305;DHT22;26433;48.034;-1.764;2022-10-12T20:48:36;17.10;69.70
35305;DHT22;26433;48.034;-1.764;2022-10-12T20:53:41;17.10;69.70
35305;DHT22;26433;48.034;-1.764;2022-10-12T20:58:46;17.20;69.60
35305;DHT22;26433;48.034;-1.764;2022-10-12T21:03:50;17.10;69.70
35305;DHT22;26433;48.034;-1.764;2022-10-12T21:08:55;17.00;69.80
35305;DHT22;26433;48.034;-1.764;2022-10-12T21:14:00;16.90;70.20
35305;DHT22;26433;48.034;-1.764;2022-10-12T21:19:04;16.90;70.40
35305;DHT22;26433;48.034;-1.764;2022-10-12T21:24:08;17.00;70.30
35305;DHT22;26433;48.034;-1.764;2022-10-12T21:29:14;16.90;70.40
35305;DHT22;26433;48.034;-1.764;2022-10-12T21:34:17;16.80;70.60
35305;DHT22;26433;48.034;-1.764;2022-10-12T21:39:21;16.70;71.10
35305;DHT22;26433;48.034;-1.764;2022-10-12T21:44:26;16.60;71.30
35305;DHT22;26433;48.034;-1.764;2022-10-12T21:49:30;16.50;71.50
35305;DHT22;26433;48.034;-1.764;2022-10-12T21:54:33;16.50;71.60
35305;DHT22;26433;48.034;-1.764;2022-10-12T21:59:38;16.40;71.90
35305;DHT22;26433;48.034;-1.764;2022-10-12T22:04:42;16.40;71.90
35305;DHT22;26433;48.034;-1.764;2022-10-12T22:09:45;16.40;72.00
35305;DHT22;26433;48.034;-1.764;2022-10-12T22:14:52;16.30;72.10
35305;DHT22;26433;48.034;-1.764;2022-10-12T22:19:57;16.30;72.30
35305;DHT22;26433;48.034;-1.764;2022-10-12T22:25:02;16.30;72.50
